sensor_id;sensor_type;location;lat;lon;timestamp;pressure;altitude;pressure_sealevel;temperature;humidity
62697;BME280;48761;42.680;23.312;2022-10-17T00:00:39;96141.25;;;10.62;60.77
62697;BME280;48761;42.680;23.312;2022-10-17T00:03:06;96137.66;;;10.63;60.67
62697;BME280;48761;42.680;23.312;2022-10-17T00:05:32;96127.66;;;10.51;61.00
62697;BME280;48761;42.680;23.312;2022-10-17T00:07:58;96130.75;;;10.59;60.87
62697;BME280;48761;42.680;23.312;2022-10-17T00:10:24;96124.31;;;10.46;61.10
62697;BME280;48761;42.680;23.312;2022-10-17T00:12:50;96139.97;;;10.52;61.12
62697;BME280;48761;42.680;23.312;2022-10-17T00:15:18;96131.50;;;10.43;61.19
62697;BME280;48761;42.680;23.312;2022-10-17T00:17:44;96141.81;;;10.50;61.03
62697;BME280;48761;42.680;23.312;2022-10-17T00:20:11;96133.66;;;10.54;60.93
62697;BME280;48761;42.680;23.312;2022-10-17T00:22:37;96140.28;;;10.46;60.98
62697;BME280;48761;42.680;23.312;2022-10-17T00:25:03;96125.00;;;10.49;60.71
62697;BME280;48761;42.680;23.312;2022-10-17T00:27:29;96139.31;;;10.47;60.83
62697;BME280;48761;42.680;23.312;2022-10-17T00:29:55;96137.63;;;10.46;61.01
62697;BME280;48761;42.680;23.312;2022-10-17T00:32:21;96140.72;;;10.36;61.10
62697;BME280;48761;42.680;23.312;2022-10-17T00:34:47;96139.88;;;10.36;61.48
62697;BME280;48761;42.680;23.312;2022-10-17T00:37:13;96140.09;;;10.31;61.74
62697;BME280;48761;42.680;23.312;2022-10-17T00:39:38;96140.88;;;10.33;61.44
62697;BME280;48761;42.680;23.312;2022-10-17T00:42:05;96146.47;;;10.27;61.50
62697;BME280;48761;42.680;23.312;2022-10-17T00:47:00;96151.97;;;10.24;61.49
62697;BME280;48761;42.680;23.312;2022-10-17T00:49:30;96110.53;;;10.00;61.46
62697;BME280;48761;42.680;23.312;2022-10-17T00:52:00;96148.34;;;10.25;61.45
62697;BME280;48761;42.680;23.312;2022-10-17T00:54:30;96149.34;;;10.22;61.50
62697;BME280;48761;42.680;23.312;2022-10-17T00:56:58;96151.50;;;10.33;60.75
62697;BME280;48761;42.680;23.312;2022-10-17T00:59:25;96154.34;;;10.48;60.66
62697;BME280;48761;42.680;23.312;2022-10-17T01:02:07;96148.19;;;10.28;61.16
62697;BME280;48761;42.680;23.312;2022-10-17T01:04:34;96147.41;;;10.06;61.56
62697;BME280;48761;42.680;23.312;2022-10-17T01:07:01;96136.09;;;10.03;61.51
62697;BME280;48761;42.680;23.312;2022-10-17T01:09:28;96141.03;;;9.91;61.89
62697;BME280;48761;42.680;23.312;2022-10-17T01:32:20;96144.66;;;9.90;61.90
62697;BME280;48761;42.680;23.312;2022-10-17T01:34:54;96145.69;;;9.86;62.34
62697;BME280;48761;42.680;23.312;2022-10-17T01:37:29;96144.44;;;9.75;62.32
62697;BME280;48761;42.680;23.312;2022-10-17T01:45:52;96143.03;;;9.67;62.43
62697;BME280;48761;42.680;23.312;2022-10-17T01:48:23;96153.59;;;9.68;62.51
62697;BME280;48761;42.680;23.312;2022-10-17T01:51:02;96155.88;;;9.76;62.26
62697;BME280;48761;42.680;23.312;2022-10-17T01:53:34;96153.44;;;9.71;62.39
62697;BME280;48761;42.680;23.312;2022-10-17T01:56:04;96148.69;;;9.59;62.22
62697;BME280;48761;42.680;23.312;2022-10-17T01:58:38;96159.09;;;9.63;62.69
62697;BME280;48761;42.680;23.312;2022-10-17T02:01:06;96161.72;;;9.65;62.71
62697;BME280;48761;42.680;23.312;2022-10-17T02:03:34;96155.63;;;9.63;62.39
62697;BME280;48761;42.680;23.312;2022-10-17T02:06:01;96156.41;;;9.65;62.52
62697;BME280;48761;42.680;23.312;2022-10-17T02:08:39;96158.41;;;9.60;62.42
62697;BME280;48761;42.680;23.312;2022-10-17T02:11:17;96151.00;;;9.47;62.54
62697;BME280;48761;42.680;23.312;2022-10-17T02:17:13;96150.69;;;9.53;62.25
62697;BME280;48761;42.680;23.312;2022-10-17T02:22:46;96148.75;;;9.38;62.60
62697;BME280;48761;42.680;23.312;2022-10-17T02:25:18;96166.91;;;9.47;63.05
62697;BME280;48761;42.680;23.312;2022-10-17T02:28:03;96166.78;;;9.50;62.71
62697;BME280;48761;42.680;23.312;2022-10-17T02:30:46;96173.03;;;9.49;62.73
62697;BME280;48761;42.680;23.312;2022-10-17T02:33:20;96178.09;;;9.35;63.47
62697;BME280;48761;42.680;23.312;2022-10-17T02:35:52;96185.75;;;9.41;63.30
62697;BME280;48761;42.680;23.312;2022-10-17T02:38:20;96178.53;;;9.45;62.94
62697;BME280;48761;42.680;23.312;2022-10-17T02:40:49;96180.19;;;9.47;63.08
62697;BME280;48761;42.680;23.312;2022-10-17T02:43:16;96143.97;;;9.25;63.01
62697;BME280;48761;42.680;23.312;2022-10-17T02:45:42;96167.25;;;9.39;62.63
62697;BME280;48761;42.680;23.312;2022-10-17T02:48:14;96193.25;;;9.52;62.33
62697;BME280;48761;42.680;23.312;2022-10-17T02:53:32;96193.34;;;9.29;62.81
62697;BME280;48761;42.680;23.312;2022-10-17T02:56:07;96195.06;;;9.30;63.03
62697;BME280;48761;42.680;23.312;2022-10-17T02:58:36;96195.22;;;9.27;62.88
62697;BME280;48761;42.680;23.312;2022-10-17T03:01:03;96204.66;;;9.33;62.98
62697;BME280;48761;42.680;23.312;2022-10-17T03:03:30;96189.25;;;9.22;63.13
62697;BME280;48761;42.680;23.312;2022-10-17T03:05:56;96208.19;;;9.34;62.98
62697;BME280;48761;42.680;23.312;2022-10-17T03:08:23;96194.75;;;9.17;62.94
62697;BME280;48761;42.680;23.312;2022-10-17T03:10:50;96208.72;;;9.21;63.20
62697;BME280;48761;42.680;23.312;2022-10-17T03:13:16;96211.50;;;9.18;63.46
62697;BME280;48761;42.680;23.312;2022-10-17T03:15:42;96212.84;;;9.28;63.25
62697;BME280;48761;42.680;23.312;2022-10-17T03:18:08;96200.22;;;9.13;63.07
62697;BME280;48761;42.680;23.312;2022-10-17T03:20:34;96212.97;;;9.25;62.88
62697;BME280;48761;42.680;23.312;2022-10-17T03:23:00;96190.81;;;9.05;63.19
62697;BME280;48761;42.680;23.312;2022-10-17T03:25:31;96209.72;;;9.18;62.97
62697;BME280;48761;42.680;23.312;2022-10-17T03:28:00;96216.75;;;9.19;62.83
62697;BME280;48761;42.680;23.312;2022-10-17T03:30:26;96218.44;;;9.22;62.94
62697;BME280;48761;42.680;23.312;2022-10-17T03:32:53;96198.84;;;9.04;62.95
62697;BME280;48761;42.680;23.312;2022-10-17T03:35:22;96197.06;;;9.04;63.13
62697;BME280;48761;42.680;23.312;2022-10-17T03:37:51;96210.91;;;9.11;63.23
62697;BME280;48761;42.680;23.312;2022-10-17T03:40:17;96213.50;;;9.13;62.83
62697;BME280;48761;42.680;23.312;2022-10-17T03:42:43;96145.69;;;8.63;62.60
62697;BME280;48761;42.680;23.312;2022-10-17T03:45:18;96156.97;;;8.69;62.82
62697;BME280;48761;42.680;23.312;2022-10-17T03:47:48;96221.72;;;9.06;63.10
62697;BME280;48761;42.680;23.312;2022-10-17T03:50:22;96229.00;;;9.01;63.05
62697;BME280;48761;42.680;23.312;2022-10-17T03:52:48;96223.81;;;8.98;63.35
62697;BME280;48761;42.680;23.312;2022-10-17T03:55:15;96205.78;;;8.85;62.93
62697;BME280;48761;42.680;23.312;2022-10-17T03:57:44;96235.88;;;8.84;63.87
62697;BME280;48761;42.680;23.312;2022-10-17T04:02:50;96209.59;;;8.78;63.34
62697;BME280;48761;42.680;23.312;2022-10-17T04:05:23;96151.84;;;8.41;63.66
62697;BME280;48761;42.680;23.312;2022-10-17T04:07:52;96164.16;;;8.43;63.56
62697;BME280;48761;42.680;23.312;2022-10-17T04:10:18;96185.19;;;8.47;63.89
62697;BME280;48761;42.680;23.312;2022-10-17T04:12:46;96200.50;;;8.63;63.63
62697;BME280;48761;42.680;23.312;2022-10-17T04:15:13;96224.47;;;8.82;63.23
62697;BME280;48761;42.680;23.312;2022-10-17T04:17:38;96243.03;;;8.82;63.43
62697;BME280;48761;42.680;23.312;2022-10-17T04:20:05;96242.19;;;8.82;63.62
62697;BME280;48761;42.680;23.312;2022-10-17T04:22:31;96244.75;;;8.83;63.13
62697;BME280;48761;42.680;23.312;2022-10-17T04:24:57;96227.25;;;8.79;63.24
62697;BME280;48761;42.680;23.312;2022-10-17T04:27:23;96243.88;;;8.83;63.16
62697;BME280;48761;42.680;23.312;2022-10-17T04:29:49;96250.19;;;8.80;62.94
62697;BME280;48761;42.680;23.312;2022-10-17T04:32:15;96244.94;;;8.79;63.09
62697;BME280;48761;42.680;23.312;2022-10-17T04:34:40;96239.09;;;8.70;63.32
62697;BME280;48761;42.680;23.312;2022-10-17T04:37:06;96241.53;;;8.75;63.39
62697;BME280;48761;42.680;23.312;2022-10-17T04:39:32;96246.78;;;8.54;63.84
62697;BME280;48761;42.680;23.312;2022-10-17T04:41:58;96245.75;;;8.58;64.14
62697;BME280;48761;42.680;23.312;2022-10-17T04:44:24;96252.78;;;8.59;63.91
62697;BME280;48761;42.680;23.312;2022-10-17T04:46:50;96245.63;;;8.61;63.98
62697;BME280;48761;42.680;23.312;2022-10-17T04:49:16;96259.56;;;8.67;64.02
62697;BME280;48761;42.680;23.312;2022-10-17T04:51:42;96251.94;;;8.57;64.03
62697;BME280;48761;42.680;23.312;2022-10-17T04:54:08;96259.44;;;8.70;64.38
62697;BME280;48761;42.680;23.312;2022-10-17T04:56:34;96259.50;;;8.91;64.44
62697;BME280;48761;42.680;23.312;2022-10-17T04:59:00;96217.63;;;8.77;64.41
62697;BME280;48761;42.680;23.312;2022-10-17T05:01:26;96250.84;;;9.29;63.28
62697;BME280;48761;42.680;23.312;2022-10-17T05:03:52;96231.28;;;9.32;63.33
62697;BME280;48761;42.680;23.312;2022-10-17T05:06:20;96260.78;;;10.46;76.79
62697;BME280;48761;42.680;23.312;2022-10-17T05:08:46;96263.19;;;10.12;61.98
62697;BME280;48761;42.680;23.312;2022-10-17T05:11:17;96269.50;;;10.29;61.10
62697;BME280;48761;42.680;23.312;2022-10-17T05:13:43;96275.59;;;10.52;60.80
62697;BME280;48761;42.680;23.312;2022-10-17T05:16:09;96276.22;;;10.57;59.51
62697;BME280;48761;42.680;23.312;2022-10-17T05:18:35;96279.25;;;10.69;59.56
62697;BME280;48761;42.680;23.312;2022-10-17T05:21:04;96264.72;;;10.76;59.16
62697;BME280;48761;42.680;23.312;2022-10-17T05:23:30;96283.94;;;11.01;58.85
62697;BME280;48761;42.680;23.312;2022-10-17T05:25:56;96277.16;;;11.13;58.29
62697;BME280;48761;42.680;23.312;2022-10-17T05:28:22;96286.56;;;11.38;57.35
62697;BME280;48761;42.680;23.312;2022-10-17T05:30:48;96267.63;;;11.44;56.88
62697;BME280;48761;42.680;23.312;2022-10-17T05:33:14;96294.78;;;11.69;56.87
62697;BME280;48761;42.680;23.312;2022-10-17T05:35:41;96283.19;;;11.87;55.88
62697;BME280;48761;42.680;23.312;2022-10-17T05:38:06;96268.50;;;11.96;55.01
62697;BME280;48761;42.680;23.312;2022-10-17T05:40:33;96294.03;;;12.52;54.84
62697;BME280;48761;42.680;23.312;2022-10-17T05:42:59;96255.63;;;12.23;53.98
62697;BME280;48761;42.680;23.312;2022-10-17T05:45:25;96279.91;;;12.50;53.99
62697;BME280;48761;42.680;23.312;2022-10-17T05:47:50;96300.75;;;12.76;53.57
62697;BME280;48761;42.680;23.312;2022-10-17T05:50:16;96294.91;;;13.02;53.44
62697;BME280;48761;42.680;23.312;2022-10-17T05:52:42;96302.03;;;13.01;53.31
62697;BME280;48761;42.680;23.312;2022-10-17T05:55:08;96293.25;;;13.62;52.02
62697;BME280;48761;42.680;23.312;2022-10-17T05:57:34;96301.34;;;13.61;51.31
62697;BME280;48761;42.680;23.312;2022-10-17T06:00:00;96307.88;;;13.55;50.97
62697;BME280;48761;42.680;23.312;2022-10-17T06:02:26;96317.88;;;13.51;51.33
62697;BME280;48761;42.680;23.312;2022-10-17T06:04:52;96321.25;;;13.86;50.44
62697;BME280;48761;42.680;23.312;2022-10-17T06:07:18;96326.22;;;13.77;50.28
62697;BME280;48761;42.680;23.312;2022-10-17T06:09:44;96293.56;;;13.72;50.16
62697;BME280;48761;42.680;23.312;2022-10-17T06:12:10;96322.94;;;13.56;50.06
62697;BME280;48761;42.680;23.312;2022-10-17T06:14:36;96307.34;;;14.10;49.53
62697;BME280;48761;42.680;23.312;2022-10-17T06:17:02;96315.38;;;14.25;49.03
62697;BME280;48761;42.680;23.312;2022-10-17T06:19:28;96318.53;;;14.46;48.34
62697;BME280;48761;42.680;23.312;2022-10-17T06:21:54;96308.88;;;14.73;47.47
62697;BME280;48761;42.680;23.312;2022-10-17T06:24:19;96320.34;;;14.60;47.65
62697;BME280;48761;42.680;23.312;2022-10-17T06:26:45;96328.56;;;14.57;47.98
62697;BME280;48761;42.680;23.312;2022-10-17T06:29:11;96343.28;;;14.35;48.32
62697;BME280;48761;42.680;23.312;2022-10-17T06:31:37;96337.34;;;14.44;48.00
62697;BME280;48761;42.680;23.312;2022-10-17T06:34:03;96348.25;;;14.71;47.47
62697;BME280;48761;42.680;23.312;2022-10-17T06:36:29;96346.53;;;14.70;47.26
62697;BME280;48761;42.680;23.312;2022-10-17T06:38:55;96322.44;;;14.70;47.21
62697;BME280;48761;42.680;23.312;2022-10-17T06:41:24;96303.50;;;14.73;47.00
62697;BME280;48761;42.680;23.312;2022-10-17T06:43:50;96348.91;;;14.89;47.00
62697;BME280;48761;42.680;23.312;2022-10-17T06:46:23;96322.19;;;15.17;45.91
62697;BME280;48761;42.680;23.312;2022-10-17T06:48:49;96351.09;;;14.82;46.93
62697;BME280;48761;42.680;23.312;2022-10-17T06:51:54;96316.72;;;14.17;47.49
62697;BME280;48761;42.680;23.312;2022-10-17T06:54:20;96329.72;;;14.67;47.25
62697;BME280;48761;42.680;23.312;2022-10-17T06:56:46;96299.84;;;15.03;46.01
62697;BME280;48761;42.680;23.312;2022-10-17T06:59:12;96349.44;;;15.23;45.97
62697;BME280;48761;42.680;23.312;2022-10-17T07:01:38;96354.06;;;14.92;46.50
62697;BME280;48761;42.680;23.312;2022-10-17T07:04:04;96353.56;;;13.97;48.33
62697;BME280;48761;42.680;23.312;2022-10-17T07:06:30;96356.81;;;13.55;49.53
62697;BME280;48761;42.680;23.312;2022-10-17T07:08:56;96351.84;;;14.11;48.94
62697;BME280;48761;42.680;23.312;2022-10-17T07:11:22;96347.66;;;14.80;47.13
62697;BME280;48761;42.680;23.312;2022-10-17T07:13:48;96356.03;;;15.18;46.28
62697;BME280;48761;42.680;23.312;2022-10-17T07:16:15;96347.28;;;15.01;46.68
62697;BME280;48761;42.680;23.312;2022-10-17T07:18:48;96343.81;;;15.13;46.57
62697;BME280;48761;42.680;23.312;2022-10-17T07:21:16;96349.19;;;14.84;47.07
62697;BME280;48761;42.680;23.312;2022-10-17T07:23:44;96338.66;;;15.10;46.47
62697;BME280;48761;42.680;23.312;2022-10-17T07:26:13;96319.47;;;14.60;47.34
62697;BME280;48761;42.680;23.312;2022-10-17T07:28:42;96351.59;;;14.89;47.64
62697;BME280;48761;42.680;23.312;2022-10-17T07:31:14;96343.06;;;15.11;46.62
62697;BME280;48761;42.680;23.312;2022-10-17T07:33:41;96346.91;;;14.78;47.18
62697;BME280;48761;42.680;23.312;2022-10-17T07:36:07;96332.16;;;14.85;47.27
62697;BME280;48761;42.680;23.312;2022-10-17T07:38:33;96358.34;;;15.65;45.97
62697;BME280;48761;42.680;23.312;2022-10-17T07:41:02;96362.41;;;15.57;45.87
62697;BME280;48761;42.680;23.312;2022-10-17T07:43:29;96341.63;;;14.76;47.14
62697;BME280;48761;42.680;23.312;2022-10-17T07:45:56;96366.81;;;14.74;47.89
62697;BME280;48761;42.680;23.312;2022-10-17T07:48:22;96309.34;;;14.65;47.24
62697;BME280;48761;42.680;23.312;2022-10-17T07:50:51;96343.06;;;14.97;47.24
62697;BME280;48761;42.680;23.312;2022-10-17T07:53:18;96364.91;;;14.90;47.31
62697;BME280;48761;42.680;23.312;2022-10-17T07:55:44;96365.09;;;14.87;47.54
62697;BME280;48761;42.680;23.312;2022-10-17T07:58:11;96341.19;;;14.40;48.50
62697;BME280;48761;42.680;23.312;2022-10-17T08:00:37;96354.00;;;14.94;47.95
62697;BME280;48761;42.680;23.312;2022-10-17T08:03:04;96363.75;;;15.78;46.30
62697;BME280;48761;42.680;23.312;2022-10-17T08:05:31;96339.78;;;15.21;46.94
62697;BME280;48761;42.680;23.312;2022-10-17T08:07:57;96339.88;;;15.47;46.26
62697;BME280;48761;42.680;23.312;2022-10-17T08:10:23;96327.59;;;16.24;44.58
62697;BME280;48761;42.680;23.312;2022-10-17T08:12:49;96334.47;;;16.68;43.75
62697;BME280;48761;42.680;23.312;2022-10-17T08:15:15;96320.19;;;17.05;42.85
62697;BME280;48761;42.680;23.312;2022-10-17T08:17:41;96279.06;;;16.91;42.23
62697;BME280;48761;42.680;23.312;2022-10-17T08:20:09;96339.38;;;17.12;42.82
62697;BME280;48761;42.680;23.312;2022-10-17T08:22:35;96337.94;;;16.95;43.17
62697;BME280;48761;42.680;23.312;2022-10-17T08:25:01;96340.66;;;16.68;43.68
62697;BME280;48761;42.680;23.312;2022-10-17T08:27:27;96327.41;;;16.28;44.11
62697;BME280;48761;42.680;23.312;2022-10-17T08:29:54;96313.81;;;16.68;43.76
62697;BME280;48761;42.680;23.312;2022-10-17T08:32:21;96338.94;;;16.94;43.02
62697;BME280;48761;42.680;23.312;2022-10-17T08:34:48;96305.91;;;16.54;42.85
62697;BME280;48761;42.680;23.312;2022-10-17T08:37:14;96291.72;;;16.52;42.11
62697;BME280;48761;42.680;23.312;2022-10-17T08:39:41;96294.53;;;16.63;41.58
62697;BME280;48761;42.680;23.312;2022-10-17T08:47:14;96303.19;;;17.18;41.09
62697;BME280;48761;42.680;23.312;2022-10-17T08:49:51;96302.34;;;17.42;39.86
62697;BME280;48761;42.680;23.312;2022-10-17T08:52:32;96341.16;;;17.38;39.68
62697;BME280;48761;42.680;23.312;2022-10-17T08:55:00;96331.78;;;17.43;39.13
62697;BME280;48761;42.680;23.312;2022-10-17T08:57:25;96335.34;;;17.44;39.44
62697;BME280;48761;42.680;23.312;2022-10-17T08:59:53;96342.69;;;18.14;39.09
62697;BME280;48761;42.680;23.312;2022-10-17T09:02:42;96344.56;;;17.89;38.33
62697;BME280;48761;42.680;23.312;2022-10-17T09:10:41;96345.31;;;17.04;39.23
62697;BME280;48761;42.680;23.312;2022-10-17T09:13:27;96342.31;;;17.09;39.01
62697;BME280;48761;42.680;23.312;2022-10-17T09:18:49;96326.69;;;17.88;37.24
62697;BME280;48761;42.680;23.312;2022-10-17T09:21:39;96338.34;;;18.24;37.81
62697;BME280;48761;42.680;23.312;2022-10-17T09:24:17;96322.81;;;17.92;36.95
62697;BME280;48761;42.680;23.312;2022-10-17T09:26:45;96336.53;;;17.64;37.14
62697;BME280;48761;42.680;23.312;2022-10-17T09:29:19;96323.09;;;18.12;37.14
62697;BME280;48761;42.680;23.312;2022-10-17T09:32:01;96334.78;;;17.88;35.75
62697;BME280;48761;42.680;23.312;2022-10-17T09:34:31;96339.09;;;17.66;35.52
62697;BME280;48761;42.680;23.312;2022-10-17T09:37:01;96315.97;;;17.52;35.09
62697;BME280;48761;42.680;23.312;2022-10-17T09:39:28;96326.66;;;16.89;35.97
62697;BME280;48761;42.680;23.312;2022-10-17T09:41:55;96332.34;;;17.35;35.49
62697;BME280;48761;42.680;23.312;2022-10-17T09:44:31;96311.34;;;17.65;35.34
62697;BME280;48761;42.680;23.312;2022-10-17T09:47:24;96320.81;;;17.83;34.99
62697;BME280;48761;42.680;23.312;2022-10-17T09:49:51;96323.25;;;17.50;36.02
62697;BME280;48761;42.680;23.312;2022-10-17T09:52:28;96326.16;;;17.71;34.60
62697;BME280;48761;42.680;23.312;2022-10-17T09:55:28;96320.00;;;17.57;35.39
62697;BME280;48761;42.680;23.312;2022-10-17T09:57:57;96323.50;;;17.83;34.77
62697;BME280;48761;42.680;23.312;2022-10-17T10:00:28;96313.03;;;18.02;34.41
62697;BME280;48761;42.680;23.312;2022-10-17T10:08:29;96292.63;;;17.14;33.64
62697;BME280;48761;42.680;23.312;2022-10-17T10:11:03;96296.91;;;17.30;32.53
62697;BME280;48761;42.680;23.312;2022-10-17T10:13:32;96307.47;;;17.69;32.81
62697;BME280;48761;42.680;23.312;2022-10-17T10:16:31;96297.81;;;17.42;32.72
62697;BME280;48761;42.680;23.312;2022-10-17T10:18:57;96297.31;;;17.62;32.68
62697;BME280;48761;42.680;23.312;2022-10-17T10:21:25;96300.28;;;17.81;31.75
62697;BME280;48761;42.680;23.312;2022-10-17T10:26:43;96238.16;;;17.73;31.91
62697;BME280;48761;42.680;23.312;2022-10-17T10:31:52;96275.38;;;18.02;29.94
62697;BME280;48761;42.680;23.312;2022-10-17T10:34:26;96273.69;;;18.13;30.13
62697;BME280;48761;42.680;23.312;2022-10-17T10:36:57;96285.97;;;18.29;29.67
62697;BME280;48761;42.680;23.312;2022-10-17T10:39:31;96283.53;;;18.48;29.85
62697;BME280;48761;42.680;23.312;2022-10-17T10:42:00;96282.25;;;18.07;30.57
62697;BME280;48761;42.680;23.312;2022-10-17T10:44:29;96271.59;;;17.93;29.85
62697;BME280;48761;42.680;23.312;2022-10-17T10:49:41;96259.91;;;17.70;31.37
62697;BME280;48761;42.680;23.312;2022-10-17T10:52:12;96260.81;;;17.93;31.10
62697;BME280;48761;42.680;23.312;2022-10-17T10:54:45;96273.16;;;17.85;31.74
62697;BME280;48761;42.680;23.312;2022-10-17T10:57:19;96267.66;;;17.86;32.08
62697;BME280;48761;42.680;23.312;2022-10-17T10:59:56;96268.69;;;17.61;32.29
62697;BME280;48761;42.680;23.312;2022-10-17T11:02:40;96268.53;;;17.87;31.92
62697;BME280;48761;42.680;23.312;2022-10-17T11:05:16;96265.13;;;17.60;31.72
62697;BME280;48761;42.680;23.312;2022-10-17T11:13:46;96255.69;;;17.90;30.29
62697;BME280;48761;42.680;23.312;2022-10-17T11:16:32;96244.53;;;17.84;30.02
62697;BME280;48761;42.680;23.312;2022-10-17T11:22:10;96244.34;;;18.10;29.76
62697;BME280;48761;42.680;23.312;2022-10-17T11:27:13;96241.44;;;18.24;30.33
62697;BME280;48761;42.680;23.312;2022-10-17T11:29:40;96222.38;;;18.28;30.01
62697;BME280;48761;42.680;23.312;2022-10-17T11:32:19;96240.94;;;18.54;30.33
62697;BME280;48761;42.680;23.312;2022-10-17T11:34:51;96226.22;;;18.81;30.70
62697;BME280;48761;42.680;23.312;2022-10-17T11:37:22;96235.97;;;19.05;29.37
62697;BME280;48761;42.680;23.312;2022-10-17T11:39:53;96213.75;;;18.80;29.57
62697;BME280;48761;42.680;23.312;2022-10-17T11:42:50;96236.16;;;18.23;29.97
62697;BME280;48761;42.680;23.312;2022-10-17T11:45:19;96230.78;;;18.46;30.09
62697;BME280;48761;42.680;23.312;2022-10-17T11:47:50;96220.25;;;18.54;30.08
62697;BME280;48761;42.680;23.312;2022-10-17T11:50:28;96221.72;;;18.58;29.85
62697;BME280;48761;42.680;23.312;2022-10-17T11:52:59;96215.00;;;18.64;30.04
62697;BME280;48761;42.680;23.312;2022-10-17T11:55:27;96227.72;;;18.62;30.20
62697;BME280;48761;42.680;23.312;2022-10-17T12:03:52;96226.28;;;18.35;29.96
62697;BME280;48761;42.680;23.312;2022-10-17T12:11:56;96212.06;;;18.33;30.67
62697;BME280;48761;42.680;23.312;2022-10-17T12:17:01;96207.66;;;18.09;30.95
62697;BME280;48761;42.680;23.312;2022-10-17T12:19:30;96180.25;;;18.03;30.82
62697;BME280;48761;42.680;23.312;2022-10-17T12:21:59;96208.63;;;18.19;30.36
62697;BME280;48761;42.680;23.312;2022-10-17T12:24:43;96200.09;;;18.25;29.93
62697;BME280;48761;42.680;23.312;2022-10-17T12:30:24;96207.44;;;18.23;30.03
62697;BME280;48761;42.680;23.312;2022-10-17T12:35:38;96178.91;;;18.09;28.99
62697;BME280;48761;42.680;23.312;2022-10-17T12:45:49;96197.25;;;18.04;30.45
62697;BME280;48761;42.680;23.312;2022-10-17T12:51:18;96197.63;;;18.11;30.59
62697;BME280;48761;42.680;23.312;2022-10-17T12:56:37;96203.00;;;18.11;30.68
62697;BME280;48761;42.680;23.312;2022-10-17T12:59:23;96197.84;;;18.08;30.41
62697;BME280;48761;42.680;23.312;2022-10-17T13:01:53;96184.19;;;17.99;30.71
62697;BME280;48761;42.680;23.312;2022-10-17T13:04:20;96192.16;;;18.24;30.91
62697;BME280;48761;42.680;23.312;2022-10-17T13:06:53;96188.59;;;18.35;29.95
62697;BME280;48761;42.680;23.312;2022-10-17T13:09:34;96192.25;;;18.34;30.64
62697;BME280;48761;42.680;23.312;2022-10-17T13:12:11;96169.63;;;18.36;30.35
62697;BME280;48761;42.680;23.312;2022-10-17T13:14:40;96186.63;;;18.48;30.15
62697;BME280;48761;42.680;23.312;2022-10-17T13:17:28;96195.31;;;18.41;30.55
62697;BME280;48761;42.680;23.312;2022-10-17T13:19:54;96183.94;;;18.25;30.73
62697;BME280;48761;42.680;23.312;2022-10-17T13:22:23;96195.31;;;18.29;30.27
62697;BME280;48761;42.680;23.312;2022-10-17T13:24:51;96193.88;;;18.25;29.70
62697;BME280;48761;42.680;23.312;2022-10-17T13:27:22;96188.84;;;18.32;29.71
62697;BME280;48761;42.680;23.312;2022-10-17T13:29:48;96184.69;;;18.39;29.53
62697;BME280;48761;42.680;23.312;2022-10-17T13:32:14;96180.75;;;18.43;29.30
62697;BME280;48761;42.680;23.312;2022-10-17T13:34:40;96185.88;;;18.46;29.88
62697;BME280;48761;42.680;23.312;2022-10-17T13:37:10;96184.06;;;18.35;30.00
62697;BME280;48761;42.680;23.312;2022-10-17T13:39:40;96180.63;;;18.33;29.37
62697;BME280;48761;42.680;23.312;2022-10-17T13:42:20;96188.84;;;18.32;30.90
62697;BME280;48761;42.680;23.312;2022-10-17T13:44:47;96177.31;;;18.18;30.80
62697;BME280;48761;42.680;23.312;2022-10-17T13:47:25;96180.28;;;18.15;31.50
62697;BME280;48761;42.680;23.312;2022-10-17T13:49:52;96180.75;;;17.97;31.60
62697;BME280;48761;42.680;23.312;2022-10-17T13:52:20;96189.91;;;18.06;32.11
62697;BME280;48761;42.680;23.312;2022-10-17T13:54:48;96196.16;;;18.07;32.23
62697;BME280;48761;42.680;23.312;2022-10-17T13:57:27;96190.28;;;18.13;32.47
62697;BME280;48761;42.680;23.312;2022-10-17T13:59:59;96190.78;;;18.07;31.93
62697;BME280;48761;42.680;23.312;2022-10-17T14:02:28;96198.59;;;17.98;32.17
62697;BME280;48761;42.680;23.312;2022-10-17T14:10:20;96193.44;;;17.95;33.09
62697;BME280;48761;42.680;23.312;2022-10-17T14:12:48;96183.06;;;17.90;33.20
62697;BME280;48761;42.680;23.312;2022-10-17T14:15:14;96181.22;;;17.79;33.47
62697;BME280;48761;42.680;23.312;2022-10-17T14:17:42;96213.75;;;17.88;34.04
62697;BME280;48761;42.680;23.312;2022-10-17T14:20:17;96192.72;;;17.93;34.47
62697;BME280;48761;42.680;23.312;2022-10-17T14:22:45;96201.75;;;17.80;35.15
62697;BME280;48761;42.680;23.312;2022-10-17T14:25:32;96189.41;;;17.66;35.31
62697;BME280;48761;42.680;23.312;2022-10-17T14:30:38;96194.63;;;17.56;35.39
62697;BME280;48761;42.680;23.312;2022-10-17T14:33:07;96196.31;;;17.57;35.58
62697;BME280;48761;42.680;23.312;2022-10-17T14:35:36;96185.44;;;17.47;35.96
62697;BME280;48761;42.680;23.312;2022-10-17T14:38:04;96195.31;;;17.47;36.38
62697;BME280;48761;42.680;23.312;2022-10-17T14:40:31;96210.34;;;17.38;36.48
62697;BME280;48761;42.680;23.312;2022-10-17T14:43:02;96189.69;;;17.14;37.01
62697;BME280;48761;42.680;23.312;2022-10-17T14:45:32;96206.03;;;17.24;36.93
62697;BME280;48761;42.680;23.312;2022-10-17T14:48:19;96202.06;;;17.17;37.23
62697;BME280;48761;42.680;23.312;2022-10-17T14:53:31;96193.91;;;16.94;37.82
62697;BME280;48761;42.680;23.312;2022-10-17T14:56:00;96216.38;;;17.04;37.97
62697;BME280;48761;42.680;23.312;2022-10-17T14:58:28;96200.06;;;16.83;38.04
62697;BME280;48761;42.680;23.312;2022-10-17T15:00:55;96220.22;;;16.88;38.35
62697;BME280;48761;42.680;23.312;2022-10-17T15:03:21;96221.41;;;16.84;38.55
62697;BME280;48761;42.680;23.312;2022-10-17T15:05:48;96225.22;;;16.68;38.94
62697;BME280;48761;42.680;23.312;2022-10-17T15:08:16;96206.59;;;16.54;39.29